4XCWH LLHZ-LLHZ

Flight info

Callsign 4XCWH
Flight time 0h 2m
Altitude 800
Route CVFR
Aircraft C152/L-VD/A

Departure

Time 2026-04-28 17:51
Airport Herzliya Airport (LLHZ)

Arrival

Time 2026-04-28 17:53
Airport Herzliya Airport (LLHZ)
Time Latitude Longitude Altitude Speed Heading
2026-04-28 17:48 32.17881 34.83779 120 ft 0 kts 110°
2026-04-28 17:50 32.17881 34.83788 118 ft 4 kts 64°
2026-04-28 17:50 32.17890 34.83820 118 ft 5 kts 66°
2026-04-28 17:50 32.17928 34.83800 121 ft 11 kts 290°
2026-04-28 17:50 32.18019 34.83499 106 ft 63 kts 289°
2026-04-28 17:51 32.18175 34.82981 271 ft 65 kts 290°
2026-04-28 17:51 32.18514 34.82708 486 ft 78 kts 12°
2026-04-28 17:51 32.18973 34.82939 772 ft 67 kts 17°
2026-04-28 17:51 32.19334 34.83311 846 ft 88 kts 78°
2026-04-28 17:52 32.19104 34.84048 885 ft 104 kts 115°
2026-04-28 17:52 32.18808 34.84851 951 ft 110 kts 110°
2026-04-28 17:52 32.17942 34.85327 754 ft 103 kts 207°
2026-04-28 17:53 32.17621 34.84843 503 ft 66 kts 285°
2026-04-28 17:53 32.17765 34.84336 319 ft 66 kts 292°
2026-04-28 17:53 32.17911 34.83852 155 ft 60 kts 292°
2026-04-28 17:53 32.18032 34.83456 105 ft 44 kts 289°
2026-04-28 17:54 32.18176 34.83003 214 ft 58 kts 300°
2026-04-28 17:54 32.18546 34.83023 404 ft 65 kts 21°
2026-04-28 17:54 32.18972 34.83175 561 ft 63 kts
2026-04-28 17:54 32.19390 34.83299 776 ft 61 kts
2026-04-28 17:55 32.19828 34.83405 931 ft 66 kts 359°
2026-04-28 17:55 32.20250 34.83441 1146 ft 61 kts 17°
2026-04-28 17:55 32.20616 34.83706 1327 ft 65 kts 22°
2026-04-28 17:55 32.21007 34.83965 1464 ft 70 kts 16°
2026-04-28 17:56 32.21437 34.84186 1679 ft 64 kts 19°
2026-04-28 17:56 32.21828 34.84404 1810 ft 66 kts 10°
2026-04-28 17:56 32.22317 34.84551 1811 ft 85 kts
2026-04-28 17:56 32.22817 34.84674 2042 ft 67 kts 14°
2026-04-28 17:57 32.23236 34.84913 2216 ft 70 kts 18°
2026-04-28 17:57 32.23703 34.85080 2382 ft 67 kts 16°
2026-04-28 17:57 32.24026 34.85246 2443 ft 75 kts 15°
2026-04-28 17:58 32.24254 34.85355 2492 ft 75 kts 14°
2026-04-28 17:58 32.24778 34.85591 2499 ft 86 kts 13°
2026-04-28 17:59 32.25366 34.85756 2560 ft 85 kts 354°
2026-04-28 17:59 32.25965 34.85643 2593 ft 89 kts 346°
2026-04-28 17:59 32.26618 34.85559 2563 ft 96 kts 349°
2026-04-28 17:59 32.27123 34.86017 2446 ft 117 kts 84°
2026-04-28 18:00 32.26638 34.86634 2396 ft 107 kts 181°
2026-04-28 18:00 32.25912 34.86622 2417 ft 104 kts 183°